sensor_id;sensor_type;location;lat;lon;timestamp;temperature;humidity
20566;DHT22;10441;50.884;12.064;2023-02-22T00:00:37;9.10;99.90
20566;DHT22;10441;50.884;12.064;2023-02-22T00:03:08;9.20;99.90
20566;DHT22;10441;50.884;12.064;2023-02-22T00:05:35;9.30;99.90
20566;DHT22;10441;50.884;12.064;2023-02-22T00:08:03;9.30;99.90
20566;DHT22;10441;50.884;12.064;2023-02-22T00:10:35;9.20;99.90
20566;DHT22;10441;50.884;12.064;2023-02-22T00:13:04;9.20;99.90
20566;DHT22;10441;50.884;12.064;2023-02-22T00:15:32;9.10;99.90
20566;DHT22;10441;50.884;12.064;2023-02-22T00:17:59;9.20;99.90
20566;DHT22;10441;50.884;12.064;2023-02-22T00:20:26;9.20;99.90
20566;DHT22;10441;50.884;12.064;2023-02-22T00:22:53;9.10;99.90
20566;DHT22;10441;50.884;12.064;2023-02-22T00:25:21;9.20;99.90
20566;DHT22;10441;50.884;12.064;2023-02-22T00:27:50;9.20;99.90
20566;DHT22;10441;50.884;12.064;2023-02-22T00:30:24;9.10;99.90
20566;DHT22;10441;50.884;12.064;2023-02-22T00:32:51;9.20;99.90
20566;DHT22;10441;50.884;12.064;2023-02-22T00:35:21;9.20;99.90
20566;DHT22;10441;50.884;12.064;2023-02-22T00:37:48;9.20;99.90
20566;DHT22;10441;50.884;12.064;2023-02-22T00:40:15;9.20;99.90
20566;DHT22;10441;50.884;12.064;2023-02-22T00:42:43;9.30;99.90
20566;DHT22;10441;50.884;12.064;2023-02-22T00:45:12;9.30;99.90
20566;DHT22;10441;50.884;12.064;2023-02-22T00:47:41;9.30;99.90
20566;DHT22;10441;50.884;12.064;2023-02-22T00:50:10;9.20;99.90
20566;DHT22;10441;50.884;12.064;2023-02-22T00:52:37;9.20;99.90
20566;DHT22;10441;50.884;12.064;2023-02-22T00:55:05;9.20;99.90
20566;DHT22;10441;50.884;12.064;2023-02-22T00:57:32;9.20;99.90
20566;DHT22;10441;50.884;12.064;2023-02-22T01:00:00;9.20;99.90
20566;DHT22;10441;50.884;12.064;2023-02-22T01:02:37;9.10;99.90
20566;DHT22;10441;50.884;12.064;2023-02-22T01:05:04;9.10;99.90
20566;DHT22;10441;50.884;12.064;2023-02-22T01:07:32;9.10;99.90
20566;DHT22;10441;50.884;12.064;2023-02-22T01:09:59;9.10;99.90
20566;DHT22;10441;50.884;12.064;2023-02-22T01:12:29;9.10;99.90
20566;DHT22;10441;50.884;12.064;2023-02-22T01:14:57;9.10;99.90
20566;DHT22;10441;50.884;12.064;2023-02-22T01:17:24;9.00;99.90
20566;DHT22;10441;50.884;12.064;2023-02-22T01:19:53;9.00;99.90
20566;DHT22;10441;50.884;12.064;2023-02-22T01:22:20;9.00;99.90
20566;DHT22;10441;50.884;12.064;2023-02-22T01:24:47;9.00;99.90
20566;DHT22;10441;50.884;12.064;2023-02-22T01:27:14;9.10;99.90
20566;DHT22;10441;50.884;12.064;2023-02-22T01:29:41;9.00;99.90
20566;DHT22;10441;50.884;12.064;2023-02-22T01:32:08;9.00;99.90
20566;DHT22;10441;50.884;12.064;2023-02-22T01:34:36;9.00;99.90
20566;DHT22;10441;50.884;12.064;2023-02-22T01:37:05;9.10;99.90
20566;DHT22;10441;50.884;12.064;2023-02-22T01:39:31;9.00;99.90
20566;DHT22;10441;50.884;12.064;2023-02-22T01:41:59;9.00;99.90
20566;DHT22;10441;50.884;12.064;2023-02-22T01:44:28;9.00;99.90
20566;DHT22;10441;50.884;12.064;2023-02-22T01:46:55;9.00;99.90
20566;DHT22;10441;50.884;12.064;2023-02-22T01:49:23;9.00;99.90
20566;DHT22;10441;50.884;12.064;2023-02-22T01:51:52;9.10;99.90
20566;DHT22;10441;50.884;12.064;2023-02-22T01:54:22;9.00;99.90
20566;DHT22;10441;50.884;12.064;2023-02-22T01:56:52;8.90;99.90
20566;DHT22;10441;50.884;12.064;2023-02-22T01:59:19;8.90;99.90
20566;DHT22;10441;50.884;12.064;2023-02-22T02:01:47;8.80;99.90
20566;DHT22;10441;50.884;12.064;2023-02-22T02:04:16;8.90;99.90
20566;DHT22;10441;50.884;12.064;2023-02-22T02:06:44;9.00;99.90
20566;DHT22;10441;50.884;12.064;2023-02-22T02:09:13;8.90;99.90
20566;DHT22;10441;50.884;12.064;2023-02-22T02:11:43;8.90;99.90
20566;DHT22;10441;50.884;12.064;2023-02-22T02:14:11;8.90;99.90
20566;DHT22;10441;50.884;12.064;2023-02-22T02:16:39;8.90;99.90
20566;DHT22;10441;50.884;12.064;2023-02-22T02:19:08;8.90;99.90
20566;DHT22;10441;50.884;12.064;2023-02-22T02:21:41;9.00;99.90
20566;DHT22;10441;50.884;12.064;2023-02-22T02:27:15;8.90;99.90
20566;DHT22;10441;50.884;12.064;2023-02-22T02:32:33;9.00;99.90
20566;DHT22;10441;50.884;12.064;2023-02-22T02:35:02;9.00;99.90
20566;DHT22;10441;50.884;12.064;2023-02-22T02:37:32;9.00;99.90
20566;DHT22;10441;50.884;12.064;2023-02-22T02:40:03;9.00;99.90
20566;DHT22;10441;50.884;12.064;2023-02-22T02:42:37;9.00;99.90
20566;DHT22;10441;50.884;12.064;2023-02-22T02:45:06;8.90;99.90
20566;DHT22;10441;50.884;12.064;2023-02-22T02:47:37;8.90;99.90
20566;DHT22;10441;50.884;12.064;2023-02-22T02:50:07;9.00;99.90
20566;DHT22;10441;50.884;12.064;2023-02-22T02:52:35;9.00;99.90
20566;DHT22;10441;50.884;12.064;2023-02-22T02:55:02;8.90;99.90
20566;DHT22;10441;50.884;12.064;2023-02-22T02:57:30;9.00;99.90
20566;DHT22;10441;50.884;12.064;2023-02-22T02:59:56;9.00;99.90
20566;DHT22;10441;50.884;12.064;2023-02-22T03:02:27;9.00;99.90
20566;DHT22;10441;50.884;12.064;2023-02-22T03:05:14;9.00;99.90
20566;DHT22;10441;50.884;12.064;2023-02-22T03:07:43;9.00;99.90
20566;DHT22;10441;50.884;12.064;2023-02-22T03:10:18;8.90;99.90
20566;DHT22;10441;50.884;12.064;2023-02-22T03:13:08;9.00;99.90
20566;DHT22;10441;50.884;12.064;2023-02-22T03:15:43;8.90;99.90
20566;DHT22;10441;50.884;12.064;2023-02-22T03:18:12;9.00;99.90
20566;DHT22;10441;50.884;12.064;2023-02-22T03:20:49;8.90;99.90
20566;DHT22;10441;50.884;12.064;2023-02-22T03:23:20;8.80;99.90
20566;DHT22;10441;50.884;12.064;2023-02-22T03:25:50;8.80;99.90
20566;DHT22;10441;50.884;12.064;2023-02-22T03:28:18;8.80;99.90
20566;DHT22;10441;50.884;12.064;2023-02-22T03:30:46;8.80;99.90
20566;DHT22;10441;50.884;12.064;2023-02-22T03:33:16;8.90;99.90
20566;DHT22;10441;50.884;12.064;2023-02-22T03:35:47;8.90;99.90
20566;DHT22;10441;50.884;12.064;2023-02-22T03:38:15;9.00;99.90
20566;DHT22;10441;50.884;12.064;2023-02-22T03:40:44;9.00;99.90
20566;DHT22;10441;50.884;12.064;2023-02-22T03:43:12;9.00;99.90
20566;DHT22;10441;50.884;12.064;2023-02-22T03:45:40;8.90;99.90
20566;DHT22;10441;50.884;12.064;2023-02-22T03:48:10;8.90;99.90
20566;DHT22;10441;50.884;12.064;2023-02-22T03:50:40;8.90;99.90
20566;DHT22;10441;50.884;12.064;2023-02-22T03:53:08;8.90;99.90
20566;DHT22;10441;50.884;12.064;2023-02-22T03:55:35;8.90;99.90
20566;DHT22;10441;50.884;12.064;2023-02-22T03:58:03;8.90;99.90
20566;DHT22;10441;50.884;12.064;2023-02-22T04:00:31;8.90;99.90
20566;DHT22;10441;50.884;12.064;2023-02-22T04:02:59;8.90;99.90
20566;DHT22;10441;50.884;12.064;2023-02-22T04:05:27;8.90;99.90
20566;DHT22;10441;50.884;12.064;2023-02-22T04:07:53;8.90;99.90
20566;DHT22;10441;50.884;12.064;2023-02-22T04:10:22;8.90;99.90
20566;DHT22;10441;50.884;12.064;2023-02-22T04:12:49;8.90;99.90
20566;DHT22;10441;50.884;12.064;2023-02-22T04:15:17;8.90;99.90
20566;DHT22;10441;50.884;12.064;2023-02-22T04:17:44;8.80;99.90
20566;DHT22;10441;50.884;12.064;2023-02-22T04:20:11;8.80;99.90
20566;DHT22;10441;50.884;12.064;2023-02-22T04:22:38;8.80;99.90
20566;DHT22;10441;50.884;12.064;2023-02-22T04:25:08;8.80;99.90
20566;DHT22;10441;50.884;12.064;2023-02-22T04:27:36;8.80;99.90
20566;DHT22;10441;50.884;12.064;2023-02-22T04:30:03;8.80;99.90
20566;DHT22;10441;50.884;12.064;2023-02-22T04:32:30;8.80;99.90
20566;DHT22;10441;50.884;12.064;2023-02-22T04:34:57;8.70;99.90
20566;DHT22;10441;50.884;12.064;2023-02-22T04:37:26;8.70;99.90
20566;DHT22;10441;50.884;12.064;2023-02-22T04:39:53;8.80;99.90
20566;DHT22;10441;50.884;12.064;2023-02-22T04:42:21;8.80;99.90
20566;DHT22;10441;50.884;12.064;2023-02-22T04:44:50;8.80;99.90
20566;DHT22;10441;50.884;12.064;2023-02-22T04:47:16;8.80;99.90
20566;DHT22;10441;50.884;12.064;2023-02-22T04:49:45;8.80;99.90
20566;DHT22;10441;50.884;12.064;2023-02-22T04:52:13;8.90;99.90
20566;DHT22;10441;50.884;12.064;2023-02-22T04:54:41;8.90;99.90
20566;DHT22;10441;50.884;12.064;2023-02-22T04:57:09;9.00;99.90
20566;DHT22;10441;50.884;12.064;2023-02-22T04:59:37;9.00;99.90
20566;DHT22;10441;50.884;12.064;2023-02-22T05:02:08;9.00;99.90
20566;DHT22;10441;50.884;12.064;2023-02-22T05:04:36;8.90;99.90
20566;DHT22;10441;50.884;12.064;2023-02-22T05:07:03;8.70;99.90
20566;DHT22;10441;50.884;12.064;2023-02-22T05:09:31;8.70;99.90
20566;DHT22;10441;50.884;12.064;2023-02-22T05:11:59;8.80;99.90
20566;DHT22;10441;50.884;12.064;2023-02-22T05:14:27;8.80;99.90
20566;DHT22;10441;50.884;12.064;2023-02-22T05:16:57;8.80;99.90
20566;DHT22;10441;50.884;12.064;2023-02-22T05:22:38;8.80;99.90
20566;DHT22;10441;50.884;12.064;2023-02-22T05:25:06;8.90;99.90
20566;DHT22;10441;50.884;12.064;2023-02-22T05:27:37;8.90;99.90
20566;DHT22;10441;50.884;12.064;2023-02-22T05:30:05;8.90;99.90
20566;DHT22;10441;50.884;12.064;2023-02-22T05:32:35;8.90;99.90
20566;DHT22;10441;50.884;12.064;2023-02-22T05:35:03;8.80;99.90
20566;DHT22;10441;50.884;12.064;2023-02-22T05:37:31;8.80;99.90
20566;DHT22;10441;50.884;12.064;2023-02-22T05:40:01;8.80;99.90
20566;DHT22;10441;50.884;12.064;2023-02-22T05:42:31;8.90;99.90
20566;DHT22;10441;50.884;12.064;2023-02-22T05:44:59;8.90;99.90
20566;DHT22;10441;50.884;12.064;2023-02-22T05:47:27;8.80;99.90
20566;DHT22;10441;50.884;12.064;2023-02-22T05:49:55;8.80;99.90
20566;DHT22;10441;50.884;12.064;2023-02-22T05:52:23;8.90;99.90
20566;DHT22;10441;50.884;12.064;2023-02-22T05:54:51;8.80;99.90
20566;DHT22;10441;50.884;12.064;2023-02-22T05:57:20;8.80;99.90
20566;DHT22;10441;50.884;12.064;2023-02-22T05:59:47;8.90;99.90
20566;DHT22;10441;50.884;12.064;2023-02-22T06:02:15;8.80;99.90
20566;DHT22;10441;50.884;12.064;2023-02-22T06:04:43;8.80;99.90
20566;DHT22;10441;50.884;12.064;2023-02-22T06:07:11;8.90;99.90
20566;DHT22;10441;50.884;12.064;2023-02-22T06:09:39;8.70;99.90
20566;DHT22;10441;50.884;12.064;2023-02-22T06:12:06;8.80;99.90
20566;DHT22;10441;50.884;12.064;2023-02-22T06:14:36;8.70;99.90
20566;DHT22;10441;50.884;12.064;2023-02-22T06:17:02;8.80;99.90
20566;DHT22;10441;50.884;12.064;2023-02-22T06:19:33;8.80;99.90
20566;DHT22;10441;50.884;12.064;2023-02-22T06:22:01;8.90;99.90
20566;DHT22;10441;50.884;12.064;2023-02-22T06:24:29;8.80;99.90
20566;DHT22;10441;50.884;12.064;2023-02-22T06:27:00;8.90;99.90
20566;DHT22;10441;50.884;12.064;2023-02-22T06:29:27;8.90;99.90
20566;DHT22;10441;50.884;12.064;2023-02-22T06:31:56;8.80;99.90
20566;DHT22;10441;50.884;12.064;2023-02-22T06:34:23;9.00;99.90
20566;DHT22;10441;50.884;12.064;2023-02-22T06:36:50;8.80;99.90
20566;DHT22;10441;50.884;12.064;2023-02-22T06:39:17;9.00;99.90
20566;DHT22;10441;50.884;12.064;2023-02-22T06:41:44;8.90;99.90
20566;DHT22;10441;50.884;12.064;2023-02-22T06:44:12;9.00;99.90
20566;DHT22;10441;50.884;12.064;2023-02-22T06:46:46;9.00;99.90
20566;DHT22;10441;50.884;12.064;2023-02-22T06:49:18;8.90;99.90
20566;DHT22;10441;50.884;12.064;2023-02-22T06:51:45;9.10;99.90
20566;DHT22;10441;50.884;12.064;2023-02-22T06:54:17;9.00;99.90
20566;DHT22;10441;50.884;12.064;2023-02-22T06:56:44;9.00;99.90
20566;DHT22;10441;50.884;12.064;2023-02-22T06:59:13;9.20;99.90
20566;DHT22;10441;50.884;12.064;2023-02-22T07:01:50;9.10;99.90
20566;DHT22;10441;50.884;12.064;2023-02-22T07:04:23;9.20;99.90
20566;DHT22;10441;50.884;12.064;2023-02-22T07:06:51;9.30;99.90
20566;DHT22;10441;50.884;12.064;2023-02-22T07:09:20;9.40;99.90
20566;DHT22;10441;50.884;12.064;2023-02-22T07:12:04;9.40;99.90
20566;DHT22;10441;50.884;12.064;2023-02-22T07:14:47;9.60;99.90
20566;DHT22;10441;50.884;12.064;2023-02-22T07:17:13;9.50;99.90
20566;DHT22;10441;50.884;12.064;2023-02-22T07:19:42;9.50;99.90
20566;DHT22;10441;50.884;12.064;2023-02-22T07:22:09;9.60;99.90
20566;DHT22;10441;50.884;12.064;2023-02-22T07:24:35;9.70;99.90
20566;DHT22;10441;50.884;12.064;2023-02-22T07:27:02;9.70;99.90
20566;DHT22;10441;50.884;12.064;2023-02-22T07:29:29;9.80;99.90
20566;DHT22;10441;50.884;12.064;2023-02-22T07:31:56;9.80;99.90
20566;DHT22;10441;50.884;12.064;2023-02-22T07:34:23;9.90;99.90
20566;DHT22;10441;50.884;12.064;2023-02-22T07:36:51;10.10;99.90
20566;DHT22;10441;50.884;12.064;2023-02-22T07:39:20;10.00;99.90
20566;DHT22;10441;50.884;12.064;2023-02-22T07:41:49;10.00;99.90
20566;DHT22;10441;50.884;12.064;2023-02-22T07:44:17;10.10;99.90
20566;DHT22;10441;50.884;12.064;2023-02-22T07:46:45;10.10;99.90
20566;DHT22;10441;50.884;12.064;2023-02-22T07:49:12;10.20;99.90
20566;DHT22;10441;50.884;12.064;2023-02-22T07:51:39;10.20;99.90
20566;DHT22;10441;50.884;12.064;2023-02-22T07:54:07;10.50;99.90
20566;DHT22;10441;50.884;12.064;2023-02-22T07:56:34;10.50;99.90
20566;DHT22;10441;50.884;12.064;2023-02-22T07:59:01;10.70;99.90
20566;DHT22;10441;50.884;12.064;2023-02-22T08:01:29;11.00;99.90
20566;DHT22;10441;50.884;12.064;2023-02-22T08:03:56;11.00;99.90
20566;DHT22;10441;50.884;12.064;2023-02-22T08:06:23;11.10;99.90
20566;DHT22;10441;50.884;12.064;2023-02-22T08:08:50;11.40;99.90
20566;DHT22;10441;50.884;12.064;2023-02-22T08:11:18;11.50;99.90
20566;DHT22;10441;50.884;12.064;2023-02-22T08:13:45;11.60;99.90
20566;DHT22;10441;50.884;12.064;2023-02-22T08:16:12;11.70;99.90
20566;DHT22;10441;50.884;12.064;2023-02-22T08:18:39;11.70;99.90
20566;DHT22;10441;50.884;12.064;2023-02-22T08:21:05;11.90;99.90
20566;DHT22;10441;50.884;12.064;2023-02-22T08:23:32;12.00;99.90
20566;DHT22;10441;50.884;12.064;2023-02-22T08:26:03;13.00;99.90
20566;DHT22;10441;50.884;12.064;2023-02-22T08:28:32;12.10;99.90
20566;DHT22;10441;50.884;12.064;2023-02-22T08:30:58;12.00;99.90
20566;DHT22;10441;50.884;12.064;2023-02-22T08:33:25;12.40;99.90
20566;DHT22;10441;50.884;12.064;2023-02-22T08:35:52;12.40;99.90
20566;DHT22;10441;50.884;12.064;2023-02-22T08:38:21;12.90;99.90
20566;DHT22;10441;50.884;12.064;2023-02-22T08:40:49;13.80;99.90
20566;DHT22;10441;50.884;12.064;2023-02-22T08:43:16;14.20;99.90
20566;DHT22;10441;50.884;12.064;2023-02-22T08:45:45;13.50;99.90
20566;DHT22;10441;50.884;12.064;2023-02-22T08:48:14;14.20;99.90
20566;DHT22;10441;50.884;12.064;2023-02-22T08:50:41;14.10;99.90
20566;DHT22;10441;50.884;12.064;2023-02-22T08:53:09;15.10;99.90
20566;DHT22;10441;50.884;12.064;2023-02-22T08:55:38;15.40;99.90
20566;DHT22;10441;50.884;12.064;2023-02-22T08:58:06;16.60;99.90
20566;DHT22;10441;50.884;12.064;2023-02-22T09:00:35;14.10;99.90
20566;DHT22;10441;50.884;12.064;2023-02-22T09:03:04;13.90;99.90
20566;DHT22;10441;50.884;12.064;2023-02-22T09:05:32;14.10;99.90
20566;DHT22;10441;50.884;12.064;2023-02-22T09:07:59;14.00;99.90
20566;DHT22;10441;50.884;12.064;2023-02-22T09:10:27;13.80;99.90
20566;DHT22;10441;50.884;12.064;2023-02-22T09:12:54;13.70;99.90
20566;DHT22;10441;50.884;12.064;2023-02-22T09:15:21;13.60;99.90
20566;DHT22;10441;50.884;12.064;2023-02-22T09:17:48;13.90;99.90
20566;DHT22;10441;50.884;12.064;2023-02-22T09:20:18;13.70;99.90
20566;DHT22;10441;50.884;12.064;2023-02-22T09:22:45;14.00;99.90
20566;DHT22;10441;50.884;12.064;2023-02-22T09:25:15;13.80;99.90
20566;DHT22;10441;50.884;12.064;2023-02-22T09:27:43;14.10;99.90
20566;DHT22;10441;50.884;12.064;2023-02-22T09:30:14;14.10;99.90
20566;DHT22;10441;50.884;12.064;2023-02-22T09:32:42;14.20;99.90
20566;DHT22;10441;50.884;12.064;2023-02-22T09:35:09;14.00;99.90
20566;DHT22;10441;50.884;12.064;2023-02-22T09:37:38;13.60;99.90
20566;DHT22;10441;50.884;12.064;2023-02-22T09:40:09;13.40;99.90
20566;DHT22;10441;50.884;12.064;2023-02-22T09:42:38;13.60;99.90
20566;DHT22;10441;50.884;12.064;2023-02-22T09:45:13;13.70;99.90
20566;DHT22;10441;50.884;12.064;2023-02-22T09:47:42;13.90;99.90
20566;DHT22;10441;50.884;12.064;2023-02-22T09:50:11;13.80;99.90
20566;DHT22;10441;50.884;12.064;2023-02-22T09:52:46;14.00;99.90
20566;DHT22;10441;50.884;12.064;2023-02-22T09:55:19;14.10;99.90
20566;DHT22;10441;50.884;12.064;2023-02-22T09:57:53;14.70;99.90
20566;DHT22;10441;50.884;12.064;2023-02-22T10:00:23;14.50;99.90
20566;DHT22;10441;50.884;12.064;2023-02-22T10:02:59;14.40;99.90
20566;DHT22;10441;50.884;12.064;2023-02-22T10:05:30;14.70;99.90
20566;DHT22;10441;50.884;12.064;2023-02-22T10:08:01;15.20;99.90
20566;DHT22;10441;50.884;12.064;2023-02-22T10:10:31;14.90;99.90
20566;DHT22;10441;50.884;12.064;2023-02-22T10:13:02;15.20;99.90
20566;DHT22;10441;50.884;12.064;2023-02-22T10:15:35;15.20;99.90
20566;DHT22;10441;50.884;12.064;2023-02-22T10:18:15;15.00;99.90
20566;DHT22;10441;50.884;12.064;2023-02-22T10:20:46;15.00;99.90
20566;DHT22;10441;50.884;12.064;2023-02-22T10:23:19;15.90;99.90
20566;DHT22;10441;50.884;12.064;2023-02-22T10:25:49;16.30;99.90
20566;DHT22;10441;50.884;12.064;2023-02-22T10:28:18;15.50;99.90
20566;DHT22;10441;50.884;12.064;2023-02-22T10:30:49;15.90;99.90
20566;DHT22;10441;50.884;12.064;2023-02-22T10:33:20;15.10;99.90
20566;DHT22;10441;50.884;12.064;2023-02-22T10:35:47;14.70;99.90
20566;DHT22;10441;50.884;12.064;2023-02-22T10:38:16;15.60;99.90
20566;DHT22;10441;50.884;12.064;2023-02-22T10:40:47;15.80;99.90
20566;DHT22;10441;50.884;12.064;2023-02-22T10:43:19;15.80;99.90
20566;DHT22;10441;50.884;12.064;2023-02-22T10:45:46;15.60;99.90
20566;DHT22;10441;50.884;12.064;2023-02-22T10:48:14;15.50;99.90
20566;DHT22;10441;50.884;12.064;2023-02-22T10:50:43;15.20;99.90
20566;DHT22;10441;50.884;12.064;2023-02-22T10:53:10;14.60;99.90
20566;DHT22;10441;50.884;12.064;2023-02-22T10:58:23;15.20;99.90
20566;DHT22;10441;50.884;12.064;2023-02-22T11:00:50;15.30;99.90
20566;DHT22;10441;50.884;12.064;2023-02-22T11:03:17;15.90;99.90
20566;DHT22;10441;50.884;12.064;2023-02-22T11:05:45;15.30;99.90
20566;DHT22;10441;50.884;12.064;2023-02-22T11:08:14;15.60;99.90
20566;DHT22;10441;50.884;12.064;2023-02-22T11:10:42;14.80;99.90
20566;DHT22;10441;50.884;12.064;2023-02-22T11:13:15;15.20;99.90
20566;DHT22;10441;50.884;12.064;2023-02-22T11:15:44;16.20;99.90
20566;DHT22;10441;50.884;12.064;2023-02-22T11:18:21;15.90;99.90
20566;DHT22;10441;50.884;12.064;2023-02-22T11:20:49;15.80;99.90
20566;DHT22;10441;50.884;12.064;2023-02-22T11:23:25;15.60;99.90
20566;DHT22;10441;50.884;12.064;2023-02-22T11:26:00;16.20;99.90
20566;DHT22;10441;50.884;12.064;2023-02-22T11:28:29;17.60;99.90
20566;DHT22;10441;50.884;12.064;2023-02-22T11:31:12;17.60;99.90
20566;DHT22;10441;50.884;12.064;2023-02-22T11:33:51;17.80;99.90
20566;DHT22;10441;50.884;12.064;2023-02-22T11:36:31;17.70;99.90
20566;DHT22;10441;50.884;12.064;2023-02-22T11:39:02;17.00;99.90
20566;DHT22;10441;50.884;12.064;2023-02-22T11:41:32;17.00;99.90
20566;DHT22;10441;50.884;12.064;2023-02-22T11:44:11;17.00;99.90
20566;DHT22;10441;50.884;12.064;2023-02-22T11:46:40;15.80;99.90
20566;DHT22;10441;50.884;12.064;2023-02-22T11:49:11;16.70;99.90
20566;DHT22;10441;50.884;12.064;2023-02-22T11:51:57;17.10;99.90
20566;DHT22;10441;50.884;12.064;2023-02-22T11:57:36;17.70;99.90
20566;DHT22;10441;50.884;12.064;2023-02-22T12:00:14;16.90;99.90
20566;DHT22;10441;50.884;12.064;2023-02-22T12:03:06;16.50;99.90
20566;DHT22;10441;50.884;12.064;2023-02-22T12:05:50;17.50;99.90
20566;DHT22;10441;50.884;12.064;2023-02-22T12:08:26;17.60;99.90
20566;DHT22;10441;50.884;12.064;2023-02-22T12:10:57;16.80;99.90
20566;DHT22;10441;50.884;12.064;2023-02-22T12:13:34;16.50;99.90
20566;DHT22;10441;50.884;12.064;2023-02-22T12:16:08;16.20;99.90
20566;DHT22;10441;50.884;12.064;2023-02-22T12:18:41;16.80;99.90
20566;DHT22;10441;50.884;12.064;2023-02-22T12:21:14;17.10;99.90
20566;DHT22;10441;50.884;12.064;2023-02-22T12:23:43;17.00;99.90
20566;DHT22;10441;50.884;12.064;2023-02-22T12:26:13;17.30;99.90
20566;DHT22;10441;50.884;12.064;2023-02-22T12:28:41;16.90;99.90
20566;DHT22;10441;50.884;12.064;2023-02-22T12:31:14;17.00;99.90
20566;DHT22;10441;50.884;12.064;2023-02-22T12:33:47;17.30;99.90
20566;DHT22;10441;50.884;12.064;2023-02-22T12:36:16;17.40;99.90
20566;DHT22;10441;50.884;12.064;2023-02-22T12:38:47;17.30;99.90
20566;DHT22;10441;50.884;12.064;2023-02-22T12:41:25;17.50;99.90
20566;DHT22;10441;50.884;12.064;2023-02-22T12:44:01;16.30;99.90
20566;DHT22;10441;50.884;12.064;2023-02-22T12:46:32;17.10;99.90
20566;DHT22;10441;50.884;12.064;2023-02-22T12:49:04;17.50;99.90
20566;DHT22;10441;50.884;12.064;2023-02-22T12:51:38;16.50;99.90
20566;DHT22;10441;50.884;12.064;2023-02-22T12:54:08;16.50;99.90
20566;DHT22;10441;50.884;12.064;2023-02-22T12:56:38;16.50;99.90
20566;DHT22;10441;50.884;12.064;2023-02-22T12:59:09;16.90;99.90
20566;DHT22;10441;50.884;12.064;2023-02-22T13:01:38;17.20;99.90
20566;DHT22;10441;50.884;12.064;2023-02-22T13:04:07;15.80;99.90
20566;DHT22;10441;50.884;12.064;2023-02-22T13:06:43;15.70;99.90
20566;DHT22;10441;50.884;12.064;2023-02-22T13:09:20;16.30;99.90
20566;DHT22;10441;50.884;12.064;2023-02-22T13:11:52;15.70;99.90
20566;DHT22;10441;50.884;12.064;2023-02-22T13:14:33;16.00;99.90
20566;DHT22;10441;50.884;12.064;2023-02-22T13:17:03;16.00;99.90
20566;DHT22;10441;50.884;12.064;2023-02-22T13:19:37;15.60;99.90
20566;DHT22;10441;50.884;12.064;2023-02-22T13:22:06;15.50;99.90
20566;DHT22;10441;50.884;12.064;2023-02-22T13:24:37;16.40;99.90
20566;DHT22;10441;50.884;12.064;2023-02-22T13:27:08;16.40;99.90
20566;DHT22;10441;50.884;12.064;2023-02-22T13:29:37;16.50;99.90
20566;DHT22;10441;50.884;12.064;2023-02-22T13:32:10;16.30;99.90
20566;DHT22;10441;50.884;12.064;2023-02-22T13:34:52;16.10;99.90
20566;DHT22;10441;50.884;12.064;2023-02-22T13:37:28;15.90;99.90
20566;DHT22;10441;50.884;12.064;2023-02-22T13:42:48;16.10;99.90
20566;DHT22;10441;50.884;12.064;2023-02-22T13:51:02;15.10;99.90
20566;DHT22;10441;50.884;12.064;2023-02-22T13:53:35;15.60;99.90
20566;DHT22;10441;50.884;12.064;2023-02-22T13:56:08;15.10;99.90
20566;DHT22;10441;50.884;12.064;2023-02-22T13:58:45;14.90;99.90
20566;DHT22;10441;50.884;12.064;2023-02-22T14:03:54;14.70;99.90
20566;DHT22;10441;50.884;12.064;2023-02-22T14:06:42;14.60;99.90
20566;DHT22;10441;50.884;12.064;2023-02-22T14:09:12;14.30;99.90
20566;DHT22;10441;50.884;12.064;2023-02-22T14:11:43;14.10;99.90
20566;DHT22;10441;50.884;12.064;2023-02-22T14:14:16;14.30;99.90
20566;DHT22;10441;50.884;12.064;2023-02-22T14:16:43;14.50;99.90
20566;DHT22;10441;50.884;12.064;2023-02-22T14:19:14;14.50;99.90
20566;DHT22;10441;50.884;12.064;2023-02-22T14:24:27;14.50;99.90
20566;DHT22;10441;50.884;12.064;2023-02-22T14:26:59;14.70;99.90
20566;DHT22;10441;50.884;12.064;2023-02-22T14:29:27;14.50;99.90
20566;DHT22;10441;50.884;12.064;2023-02-22T14:34:46;14.90;99.90
20566;DHT22;10441;50.884;12.064;2023-02-22T14:37:15;15.10;99.90
20566;DHT22;10441;50.884;12.064;2023-02-22T14:39:47;15.10;99.90
20566;DHT22;10441;50.884;12.064;2023-02-22T14:42:16;14.80;99.90
20566;DHT22;10441;50.884;12.064;2023-02-22T14:44:47;14.60;99.90
20566;DHT22;10441;50.884;12.064;2023-02-22T14:47:17;14.20;99.90
20566;DHT22;10441;50.884;12.064;2023-02-22T14:49:45;14.10;99.90
20566;DHT22;10441;50.884;12.064;2023-02-22T14:52:19;14.30;99.90
20566;DHT22;10441;50.884;12.064;2023-02-22T14:55:03;14.30;99.90
20566;DHT22;10441;50.884;12.064;2023-02-22T14:57:33;14.30;99.90
20566;DHT22;10441;50.884;12.064;2023-02-22T15:00:05;14.60;99.90
20566;DHT22;10441;50.884;12.064;2023-02-22T15:02:44;14.80;99.90
20566;DHT22;10441;50.884;12.064;2023-02-22T15:05:11;13.90;99.90
20566;DHT22;10441;50.884;12.064;2023-02-22T15:07:39;13.80;99.90
20566;DHT22;10441;50.884;12.064;2023-02-22T15:10:18;13.70;99.90
20566;DHT22;10441;50.884;12.064;2023-02-22T15:12:50;14.00;99.90
20566;DHT22;10441;50.884;12.064;2023-02-22T15:15:17;13.90;99.90
20566;DHT22;10441;50.884;12.064;2023-02-22T15:17:48;13.60;99.90
20566;DHT22;10441;50.884;12.064;2023-02-22T15:20:19;13.50;99.90
20566;DHT22;10441;50.884;12.064;2023-02-22T15:22:47;13.40;99.90
20566;DHT22;10441;50.884;12.064;2023-02-22T15:25:25;13.40;99.90
20566;DHT22;10441;50.884;12.064;2023-02-22T15:27:59;13.40;99.90
20566;DHT22;10441;50.884;12.064;2023-02-22T15:30:32;13.40;99.90
20566;DHT22;10441;50.884;12.064;2023-02-22T15:33:14;13.40;99.90
20566;DHT22;10441;50.884;12.064;2023-02-22T15:35:42;13.40;99.90
20566;DHT22;10441;50.884;12.064;2023-02-22T15:38:20;13.40;99.90
20566;DHT22;10441;50.884;12.064;2023-02-22T15:41:00;13.40;99.90
20566;DHT22;10441;50.884;12.064;2023-02-22T15:43:27;13.30;99.90
20566;DHT22;10441;50.884;12.064;2023-02-22T15:45:57;13.10;99.90
20566;DHT22;10441;50.884;12.064;2023-02-22T15:48:26;13.00;99.90
20566;DHT22;10441;50.884;12.064;2023-02-22T15:51:06;13.00;99.90
20566;DHT22;10441;50.884;12.064;2023-02-22T15:53:35;13.00;99.90
20566;DHT22;10441;50.884;12.064;2023-02-22T15:56:07;13.00;99.90
20566;DHT22;10441;50.884;12.064;2023-02-22T15:58:35;13.10;99.90
20566;DHT22;10441;50.884;12.064;2023-02-22T16:01:04;13.00;99.90
20566;DHT22;10441;50.884;12.064;2023-02-22T16:03:33;12.80;99.90
20566;DHT22;10441;50.884;12.064;2023-02-22T16:06:07;12.70;99.90
20566;DHT22;10441;50.884;12.064;2023-02-22T16:08:39;12.60;99.90
20566;DHT22;10441;50.884;12.064;2023-02-22T16:11:14;12.60;99.90